sensor_id;sensor_type;location;lat;lon;timestamp;P1;durP1;ratioP1;P2;durP2;ratioP2
39404;SDS011;25121;51.090;17.038;2023-03-21T00:00:41;65.25;;;37.35;;
39404;SDS011;25121;51.090;17.038;2023-03-21T00:02:04;58.17;;;36.55;;
39404;SDS011;25121;51.090;17.038;2023-03-21T00:03:26;61.08;;;38.10;;
39404;SDS011;25121;51.090;17.038;2023-03-21T00:04:48;67.20;;;40.70;;
39404;SDS011;25121;51.090;17.038;2023-03-21T00:06:13;60.72;;;38.30;;
39404;SDS011;25121;51.090;17.038;2023-03-21T00:07:36;64.18;;;37.25;;
39404;SDS011;25121;51.090;17.038;2023-03-21T00:08:58;63.35;;;37.90;;
39404;SDS011;25121;51.090;17.038;2023-03-21T00:10:22;62.20;;;38.55;;
39404;SDS011;25121;51.090;17.038;2023-03-21T00:12:00;66.53;;;39.42;;
39404;SDS011;25121;51.090;17.038;2023-03-21T00:13:26;61.92;;;38.13;;
39404;SDS011;25121;51.090;17.038;2023-03-21T00:14:52;65.25;;;38.35;;
39404;SDS011;25121;51.090;17.038;2023-03-21T00:16:16;62.53;;;38.65;;
39404;SDS011;25121;51.090;17.038;2023-03-21T00:17:44;70.68;;;39.63;;
39404;SDS011;25121;51.090;17.038;2023-03-21T00:19:10;63.97;;;38.50;;
39404;SDS011;25121;51.090;17.038;2023-03-21T00:20:33;65.63;;;39.33;;
39404;SDS011;25121;51.090;17.038;2023-03-21T00:21:57;68.22;;;40.95;;
39404;SDS011;25121;51.090;17.038;2023-03-21T00:23:27;72.72;;;39.97;;
39404;SDS011;25121;51.090;17.038;2023-03-21T00:24:53;66.88;;;38.55;;
39404;SDS011;25121;51.090;17.038;2023-03-21T00:26:16;64.22;;;39.03;;
39404;SDS011;25121;51.090;17.038;2023-03-21T00:27:39;66.72;;;38.75;;
39404;SDS011;25121;51.090;17.038;2023-03-21T00:29:21;66.07;;;38.60;;
39404;SDS011;25121;51.090;17.038;2023-03-21T00:30:44;66.05;;;38.97;;
39404;SDS011;25121;51.090;17.038;2023-03-21T00:32:05;66.03;;;41.22;;
39404;SDS011;25121;51.090;17.038;2023-03-21T00:33:29;69.45;;;39.50;;
39404;SDS011;25121;51.090;17.038;2023-03-21T00:34:52;68.82;;;39.55;;
39404;SDS011;25121;51.090;17.038;2023-03-21T00:36:35;63.97;;;39.50;;
39404;SDS011;25121;51.090;17.038;2023-03-21T00:37:59;67.15;;;39.80;;
39404;SDS011;25121;51.090;17.038;2023-03-21T00:39:20;65.27;;;40.67;;
39404;SDS011;25121;51.090;17.038;2023-03-21T00:40:44;65.63;;;40.97;;
39404;SDS011;25121;51.090;17.038;2023-03-21T00:42:08;65.53;;;39.38;;
39404;SDS011;25121;51.090;17.038;2023-03-21T00:43:31;73.25;;;42.67;;
39404;SDS011;25121;51.090;17.038;2023-03-21T00:44:53;67.68;;;39.67;;
39404;SDS011;25121;51.090;17.038;2023-03-21T00:46:18;63.90;;;39.90;;
39404;SDS011;25121;51.090;17.038;2023-03-21T00:47:42;66.90;;;40.55;;
39404;SDS011;25121;51.090;17.038;2023-03-21T00:49:04;68.53;;;40.30;;
39404;SDS011;25121;51.090;17.038;2023-03-21T00:50:26;68.38;;;41.03;;
39404;SDS011;25121;51.090;17.038;2023-03-21T00:51:47;70.13;;;41.60;;
39404;SDS011;25121;51.090;17.038;2023-03-21T00:53:13;68.72;;;41.08;;
39404;SDS011;25121;51.090;17.038;2023-03-21T00:54:35;74.15;;;42.03;;
39404;SDS011;25121;51.090;17.038;2023-03-21T00:55:57;68.07;;;41.15;;
39404;SDS011;25121;51.090;17.038;2023-03-21T00:57:19;66.70;;;40.00;;
39404;SDS011;25121;51.090;17.038;2023-03-21T00:58:59;68.70;;;41.05;;
39404;SDS011;25121;51.090;17.038;2023-03-21T01:00:22;69.22;;;39.75;;
39404;SDS011;25121;51.090;17.038;2023-03-21T01:01:43;69.40;;;39.97;;
39404;SDS011;25121;51.090;17.038;2023-03-21T01:03:07;70.10;;;40.55;;
39404;SDS011;25121;51.090;17.038;2023-03-21T01:04:43;64.10;;;38.65;;
39404;SDS011;25121;51.090;17.038;2023-03-21T01:06:06;66.88;;;40.30;;
39404;SDS011;25121;51.090;17.038;2023-03-21T01:07:28;65.15;;;39.13;;
39404;SDS011;25121;51.090;17.038;2023-03-21T01:08:50;80.32;;;43.85;;
39404;SDS011;25121;51.090;17.038;2023-03-21T01:10:13;92.75;;;48.63;;
39404;SDS011;25121;51.090;17.038;2023-03-21T01:11:35;86.10;;;45.42;;
39404;SDS011;25121;51.090;17.038;2023-03-21T01:14:23;81.05;;;43.17;;
39404;SDS011;25121;51.090;17.038;2023-03-21T01:15:46;73.03;;;41.88;;
39404;SDS011;25121;51.090;17.038;2023-03-21T01:17:09;80.10;;;40.45;;
39404;SDS011;25121;51.090;17.038;2023-03-21T01:18:31;75.38;;;41.42;;
39404;SDS011;25121;51.090;17.038;2023-03-21T01:19:54;60.22;;;36.33;;
39404;SDS011;25121;51.090;17.038;2023-03-21T01:21:16;56.70;;;33.63;;
39404;SDS011;25121;51.090;17.038;2023-03-21T01:22:39;61.95;;;34.42;;
39404;SDS011;25121;51.090;17.038;2023-03-21T01:24:01;58.00;;;31.20;;
39404;SDS011;25121;51.090;17.038;2023-03-21T01:25:23;69.90;;;36.83;;
39404;SDS011;25121;51.090;17.038;2023-03-21T01:26:44;59.45;;;33.08;;
39404;SDS011;25121;51.090;17.038;2023-03-21T01:28:07;57.05;;;32.17;;
39404;SDS011;25121;51.090;17.038;2023-03-21T01:29:30;61.15;;;34.20;;
39404;SDS011;25121;51.090;17.038;2023-03-21T01:30:52;63.83;;;33.88;;
39404;SDS011;25121;51.090;17.038;2023-03-21T01:32:13;59.53;;;32.63;;
39404;SDS011;25121;51.090;17.038;2023-03-21T01:33:36;65.90;;;33.05;;
39404;SDS011;25121;51.090;17.038;2023-03-21T01:34:57;67.20;;;34.97;;
39404;SDS011;25121;51.090;17.038;2023-03-21T01:37:46;62.72;;;32.53;;
39404;SDS011;25121;51.090;17.038;2023-03-21T01:39:09;54.25;;;30.80;;
39404;SDS011;25121;51.090;17.038;2023-03-21T01:40:31;51.97;;;28.83;;
39404;SDS011;25121;51.090;17.038;2023-03-21T01:43:26;53.60;;;29.80;;
39404;SDS011;25121;51.090;17.038;2023-03-21T01:44:56;70.75;;;32.17;;
39404;SDS011;25121;51.090;17.038;2023-03-21T01:46:33;61.63;;;31.02;;
39404;SDS011;25121;51.090;17.038;2023-03-21T01:48:34;44.55;;;26.38;;
39404;SDS011;25121;51.090;17.038;2023-03-21T01:50:00;51.85;;;28.63;;
39404;SDS011;25121;51.090;17.038;2023-03-21T01:51:40;56.47;;;29.98;;
39404;SDS011;25121;51.090;17.038;2023-03-21T01:53:11;56.55;;;31.42;;
39404;SDS011;25121;51.090;17.038;2023-03-21T01:54:34;56.30;;;31.52;;
39404;SDS011;25121;51.090;17.038;2023-03-21T01:56:00;65.60;;;33.33;;
39404;SDS011;25121;51.090;17.038;2023-03-21T01:57:39;49.75;;;27.35;;
39404;SDS011;25121;51.090;17.038;2023-03-21T01:59:23;53.92;;;29.50;;
39404;SDS011;25121;51.090;17.038;2023-03-21T02:01:26;49.90;;;28.80;;
39404;SDS011;25121;51.090;17.038;2023-03-21T02:02:49;52.80;;;28.70;;
39404;SDS011;25121;51.090;17.038;2023-03-21T02:04:37;46.40;;;25.83;;
39404;SDS011;25121;51.090;17.038;2023-03-21T02:06:08;56.67;;;26.83;;
39404;SDS011;25121;51.090;17.038;2023-03-21T02:07:39;54.23;;;28.50;;
39404;SDS011;25121;51.090;17.038;2023-03-21T02:09:10;50.25;;;27.60;;
39404;SDS011;25121;51.090;17.038;2023-03-21T02:10:35;50.65;;;27.85;;
39404;SDS011;25121;51.090;17.038;2023-03-21T02:11:57;58.38;;;31.33;;
39404;SDS011;25121;51.090;17.038;2023-03-21T02:13:23;57.85;;;30.45;;
39404;SDS011;25121;51.090;17.038;2023-03-21T02:14:44;51.45;;;27.17;;
39404;SDS011;25121;51.090;17.038;2023-03-21T02:16:35;46.70;;;28.30;;
39404;SDS011;25121;51.090;17.038;2023-03-21T02:18:08;51.33;;;28.05;;
39404;SDS011;25121;51.090;17.038;2023-03-21T02:20:08;58.28;;;30.38;;
39404;SDS011;25121;51.090;17.038;2023-03-21T02:23:54;64.40;;;32.72;;
39404;SDS011;25121;51.090;17.038;2023-03-21T02:25:36;58.78;;;30.08;;
39404;SDS011;25121;51.090;17.038;2023-03-21T02:27:30;60.42;;;32.13;;
39404;SDS011;25121;51.090;17.038;2023-03-21T02:28:55;51.22;;;28.83;;
39404;SDS011;25121;51.090;17.038;2023-03-21T02:32:50;52.90;;;29.08;;
39404;SDS011;25121;51.090;17.038;2023-03-21T02:34:31;53.53;;;30.15;;
39404;SDS011;25121;51.090;17.038;2023-03-21T02:36:16;54.65;;;31.50;;
39404;SDS011;25121;51.090;17.038;2023-03-21T02:37:47;59.33;;;32.50;;
39404;SDS011;25121;51.090;17.038;2023-03-21T02:39:23;55.22;;;30.83;;
39404;SDS011;25121;51.090;17.038;2023-03-21T02:40:48;55.15;;;30.35;;
39404;SDS011;25121;51.090;17.038;2023-03-21T02:42:25;51.80;;;30.30;;
39404;SDS011;25121;51.090;17.038;2023-03-21T02:43:56;62.97;;;32.65;;
39404;SDS011;25121;51.090;17.038;2023-03-21T02:45:29;57.55;;;31.50;;
39404;SDS011;25121;51.090;17.038;2023-03-21T02:46:56;71.45;;;35.08;;
39404;SDS011;25121;51.090;17.038;2023-03-21T02:48:30;65.30;;;34.03;;
39404;SDS011;25121;51.090;17.038;2023-03-21T02:50:10;65.68;;;33.45;;
39404;SDS011;25121;51.090;17.038;2023-03-21T02:51:37;62.50;;;32.78;;
39404;SDS011;25121;51.090;17.038;2023-03-21T02:53:03;59.28;;;31.83;;
39404;SDS011;25121;51.090;17.038;2023-03-21T02:54:28;65.88;;;34.42;;
39404;SDS011;25121;51.090;17.038;2023-03-21T02:56:08;69.28;;;36.83;;
39404;SDS011;25121;51.090;17.038;2023-03-21T02:57:36;69.50;;;36.45;;
39404;SDS011;25121;51.090;17.038;2023-03-21T02:59:04;58.90;;;34.05;;
39404;SDS011;25121;51.090;17.038;2023-03-21T03:00:28;73.45;;;36.88;;
39404;SDS011;25121;51.090;17.038;2023-03-21T03:01:54;70.32;;;36.33;;
39404;SDS011;25121;51.090;17.038;2023-03-21T03:03:15;70.65;;;34.88;;
39404;SDS011;25121;51.090;17.038;2023-03-21T03:04:53;74.15;;;37.72;;
39404;SDS011;25121;51.090;17.038;2023-03-21T03:06:16;66.53;;;35.78;;
39404;SDS011;25121;51.090;17.038;2023-03-21T03:07:46;69.88;;;36.50;;
39404;SDS011;25121;51.090;17.038;2023-03-21T03:09:21;68.88;;;35.60;;
39404;SDS011;25121;51.090;17.038;2023-03-21T03:10:54;69.25;;;35.08;;
39404;SDS011;25121;51.090;17.038;2023-03-21T03:12:30;63.92;;;33.58;;
39404;SDS011;25121;51.090;17.038;2023-03-21T03:14:09;68.13;;;35.60;;
39404;SDS011;25121;51.090;17.038;2023-03-21T03:16:11;76.97;;;37.58;;
39404;SDS011;25121;51.090;17.038;2023-03-21T03:17:49;66.68;;;36.20;;
39404;SDS011;25121;51.090;17.038;2023-03-21T03:19:16;74.90;;;36.38;;
39404;SDS011;25121;51.090;17.038;2023-03-21T03:20:47;76.25;;;38.67;;
39404;SDS011;25121;51.090;17.038;2023-03-21T03:22:21;70.93;;;37.45;;
39404;SDS011;25121;51.090;17.038;2023-03-21T03:23:47;68.95;;;36.47;;
39404;SDS011;25121;51.090;17.038;2023-03-21T03:25:15;64.68;;;36.03;;
39404;SDS011;25121;51.090;17.038;2023-03-21T03:27:01;62.70;;;35.90;;
39404;SDS011;25121;51.090;17.038;2023-03-21T03:28:29;68.90;;;35.83;;
39404;SDS011;25121;51.090;17.038;2023-03-21T03:31:26;62.75;;;33.92;;
39404;SDS011;25121;51.090;17.038;2023-03-21T03:32:54;67.90;;;35.97;;
39404;SDS011;25121;51.090;17.038;2023-03-21T03:34:21;73.82;;;37.17;;
39404;SDS011;25121;51.090;17.038;2023-03-21T03:35:48;64.40;;;34.35;;
39404;SDS011;25121;51.090;17.038;2023-03-21T03:37:27;63.95;;;33.95;;
39404;SDS011;25121;51.090;17.038;2023-03-21T03:38:53;68.25;;;35.38;;
39404;SDS011;25121;51.090;17.038;2023-03-21T03:40:17;68.05;;;34.45;;
39404;SDS011;25121;51.090;17.038;2023-03-21T03:41:59;63.00;;;34.20;;
39404;SDS011;25121;51.090;17.038;2023-03-21T03:43:47;72.93;;;35.28;;
39404;SDS011;25121;51.090;17.038;2023-03-21T03:45:11;72.05;;;36.80;;
39404;SDS011;25121;51.090;17.038;2023-03-21T03:46:35;69.22;;;33.58;;
39404;SDS011;25121;51.090;17.038;2023-03-21T03:48:05;69.88;;;36.20;;
39404;SDS011;25121;51.090;17.038;2023-03-21T03:49:34;64.10;;;33.45;;
39404;SDS011;25121;51.090;17.038;2023-03-21T03:51:03;61.80;;;31.65;;
39404;SDS011;25121;51.090;17.038;2023-03-21T03:52:52;70.60;;;34.45;;
39404;SDS011;25121;51.090;17.038;2023-03-21T03:54:23;60.03;;;33.35;;
39404;SDS011;25121;51.090;17.038;2023-03-21T03:55:51;68.13;;;35.20;;
39404;SDS011;25121;51.090;17.038;2023-03-21T03:57:15;59.13;;;32.90;;
39404;SDS011;25121;51.090;17.038;2023-03-21T03:58:38;67.57;;;36.22;;
39404;SDS011;25121;51.090;17.038;2023-03-21T04:00:09;65.82;;;34.67;;
39404;SDS011;25121;51.090;17.038;2023-03-21T04:01:40;68.22;;;35.42;;
39404;SDS011;25121;51.090;17.038;2023-03-21T04:03:03;72.13;;;35.67;;
39404;SDS011;25121;51.090;17.038;2023-03-21T04:04:27;71.50;;;36.80;;
39404;SDS011;25121;51.090;17.038;2023-03-21T04:05:50;67.38;;;35.25;;
39404;SDS011;25121;51.090;17.038;2023-03-21T04:07:13;65.13;;;35.75;;
39404;SDS011;25121;51.090;17.038;2023-03-21T04:08:35;74.95;;;35.88;;
39404;SDS011;25121;51.090;17.038;2023-03-21T04:09:57;67.18;;;35.10;;
39404;SDS011;25121;51.090;17.038;2023-03-21T04:11:21;69.22;;;34.33;;
39404;SDS011;25121;51.090;17.038;2023-03-21T04:12:46;65.35;;;34.85;;
39404;SDS011;25121;51.090;17.038;2023-03-21T04:14:32;64.45;;;33.03;;
39404;SDS011;25121;51.090;17.038;2023-03-21T04:16:05;60.83;;;32.35;;
39404;SDS011;25121;51.090;17.038;2023-03-21T04:17:28;67.63;;;35.45;;
39404;SDS011;25121;51.090;17.038;2023-03-21T04:18:52;59.60;;;33.15;;
39404;SDS011;25121;51.090;17.038;2023-03-21T04:20:16;66.22;;;34.33;;
39404;SDS011;25121;51.090;17.038;2023-03-21T04:21:55;67.78;;;33.95;;
39404;SDS011;25121;51.090;17.038;2023-03-21T04:23:17;69.80;;;36.15;;
39404;SDS011;25121;51.090;17.038;2023-03-21T04:24:41;62.38;;;33.13;;
39404;SDS011;25121;51.090;17.038;2023-03-21T04:26:05;81.60;;;38.13;;
39404;SDS011;25121;51.090;17.038;2023-03-21T04:27:33;74.93;;;37.20;;
39404;SDS011;25121;51.090;17.038;2023-03-21T04:29:14;69.95;;;34.60;;
39404;SDS011;25121;51.090;17.038;2023-03-21T04:30:52;59.30;;;33.35;;
39404;SDS011;25121;51.090;17.038;2023-03-21T04:32:33;66.53;;;33.20;;
39404;SDS011;25121;51.090;17.038;2023-03-21T04:34:06;65.32;;;34.33;;
39404;SDS011;25121;51.090;17.038;2023-03-21T04:35:36;72.78;;;37.78;;
39404;SDS011;25121;51.090;17.038;2023-03-21T04:37:00;69.10;;;35.40;;
39404;SDS011;25121;51.090;17.038;2023-03-21T04:38:23;71.53;;;37.40;;
39404;SDS011;25121;51.090;17.038;2023-03-21T04:39:53;70.72;;;36.17;;
39404;SDS011;25121;51.090;17.038;2023-03-21T04:41:16;70.35;;;36.97;;
39404;SDS011;25121;51.090;17.038;2023-03-21T04:42:38;75.32;;;37.53;;
39404;SDS011;25121;51.090;17.038;2023-03-21T04:44:00;66.85;;;35.97;;
39404;SDS011;25121;51.090;17.038;2023-03-21T04:45:23;70.72;;;36.72;;
39404;SDS011;25121;51.090;17.038;2023-03-21T04:46:45;61.30;;;33.63;;
39404;SDS011;25121;51.090;17.038;2023-03-21T04:48:07;78.65;;;38.58;;
39404;SDS011;25121;51.090;17.038;2023-03-21T04:49:30;63.80;;;33.55;;
39404;SDS011;25121;51.090;17.038;2023-03-21T04:50:51;67.38;;;35.97;;
39404;SDS011;25121;51.090;17.038;2023-03-21T04:52:13;71.28;;;36.38;;
39404;SDS011;25121;51.090;17.038;2023-03-21T04:53:36;69.32;;;37.33;;
39404;SDS011;25121;51.090;17.038;2023-03-21T04:54:59;67.88;;;35.35;;
39404;SDS011;25121;51.090;17.038;2023-03-21T04:56:21;71.13;;;37.10;;
39404;SDS011;25121;51.090;17.038;2023-03-21T04:57:51;71.53;;;37.58;;
39404;SDS011;25121;51.090;17.038;2023-03-21T04:59:15;69.25;;;36.88;;
39404;SDS011;25121;51.090;17.038;2023-03-21T05:00:36;67.95;;;36.85;;
39404;SDS011;25121;51.090;17.038;2023-03-21T05:01:59;76.78;;;38.90;;
39404;SDS011;25121;51.090;17.038;2023-03-21T05:03:23;67.70;;;36.28;;
39404;SDS011;25121;51.090;17.038;2023-03-21T05:04:44;71.45;;;36.10;;
39404;SDS011;25121;51.090;17.038;2023-03-21T05:06:06;71.55;;;36.65;;
39404;SDS011;25121;51.090;17.038;2023-03-21T05:07:30;73.15;;;37.17;;
39404;SDS011;25121;51.090;17.038;2023-03-21T05:10:14;74.63;;;37.78;;
39404;SDS011;25121;51.090;17.038;2023-03-21T05:11:37;76.93;;;37.95;;
39404;SDS011;25121;51.090;17.038;2023-03-21T05:13:01;80.97;;;38.47;;
39404;SDS011;25121;51.090;17.038;2023-03-21T05:14:25;75.38;;;37.85;;
39404;SDS011;25121;51.090;17.038;2023-03-21T05:15:47;79.68;;;37.95;;
39404;SDS011;25121;51.090;17.038;2023-03-21T05:17:10;75.05;;;37.63;;
39404;SDS011;25121;51.090;17.038;2023-03-21T05:18:44;68.97;;;36.58;;
39404;SDS011;25121;51.090;17.038;2023-03-21T05:20:11;74.70;;;39.05;;
39404;SDS011;25121;51.090;17.038;2023-03-21T05:21:35;76.20;;;38.25;;
39404;SDS011;25121;51.090;17.038;2023-03-21T05:23:08;70.03;;;36.83;;
39404;SDS011;25121;51.090;17.038;2023-03-21T05:24:32;75.15;;;38.90;;
39404;SDS011;25121;51.090;17.038;2023-03-21T05:25:53;71.53;;;38.63;;
39404;SDS011;25121;51.090;17.038;2023-03-21T05:27:27;71.65;;;38.22;;
39404;SDS011;25121;51.090;17.038;2023-03-21T05:29:02;76.72;;;38.88;;
39404;SDS011;25121;51.090;17.038;2023-03-21T05:30:25;73.63;;;37.15;;
39404;SDS011;25121;51.090;17.038;2023-03-21T05:31:50;64.68;;;35.08;;
39404;SDS011;25121;51.090;17.038;2023-03-21T05:33:13;71.10;;;36.10;;
39404;SDS011;25121;51.090;17.038;2023-03-21T05:34:35;73.60;;;38.30;;
39404;SDS011;25121;51.090;17.038;2023-03-21T05:35:57;71.38;;;37.72;;
39404;SDS011;25121;51.090;17.038;2023-03-21T05:37:22;67.00;;;37.10;;
39404;SDS011;25121;51.090;17.038;2023-03-21T05:38:45;71.07;;;38.75;;
39404;SDS011;25121;51.090;17.038;2023-03-21T05:40:07;76.57;;;39.42;;
39404;SDS011;25121;51.090;17.038;2023-03-21T05:41:34;64.35;;;37.10;;
39404;SDS011;25121;51.090;17.038;2023-03-21T05:42:57;67.13;;;35.97;;
39404;SDS011;25121;51.090;17.038;2023-03-21T05:44:20;66.78;;;36.40;;
39404;SDS011;25121;51.090;17.038;2023-03-21T05:45:42;71.95;;;38.45;;
39404;SDS011;25121;51.090;17.038;2023-03-21T05:47:04;73.50;;;36.80;;
39404;SDS011;25121;51.090;17.038;2023-03-21T05:48:35;71.07;;;38.53;;
39404;SDS011;25121;51.090;17.038;2023-03-21T05:50:06;71.72;;;36.45;;
39404;SDS011;25121;51.090;17.038;2023-03-21T05:51:32;66.20;;;34.30;;
39404;SDS011;25121;51.090;17.038;2023-03-21T05:52:54;77.95;;;38.33;;
39404;SDS011;25121;51.090;17.038;2023-03-21T05:54:19;73.50;;;39.25;;
39404;SDS011;25121;51.090;17.038;2023-03-21T05:55:42;73.53;;;38.53;;
39404;SDS011;25121;51.090;17.038;2023-03-21T05:58:57;71.28;;;35.83;;
39404;SDS011;25121;51.090;17.038;2023-03-21T06:00:23;68.25;;;37.25;;
39404;SDS011;25121;51.090;17.038;2023-03-21T06:02:20;68.95;;;36.20;;
39404;SDS011;25121;51.090;17.038;2023-03-21T06:03:43;70.22;;;35.67;;
39404;SDS011;25121;51.090;17.038;2023-03-21T06:05:14;64.90;;;35.83;;
39404;SDS011;25121;51.090;17.038;2023-03-21T06:06:37;67.70;;;36.47;;
39404;SDS011;25121;51.090;17.038;2023-03-21T06:07:58;71.78;;;37.38;;
39404;SDS011;25121;51.090;17.038;2023-03-21T06:09:21;68.05;;;37.13;;
39404;SDS011;25121;51.090;17.038;2023-03-21T06:10:47;65.50;;;35.90;;
39404;SDS011;25121;51.090;17.038;2023-03-21T06:12:10;65.22;;;35.70;;
39404;SDS011;25121;51.090;17.038;2023-03-21T06:13:45;73.57;;;35.83;;
39404;SDS011;25121;51.090;17.038;2023-03-21T06:15:08;62.95;;;35.08;;
39404;SDS011;25121;51.090;17.038;2023-03-21T06:16:44;67.72;;;35.92;;
39404;SDS011;25121;51.090;17.038;2023-03-21T06:18:06;67.78;;;35.40;;
39404;SDS011;25121;51.090;17.038;2023-03-21T06:19:31;63.85;;;34.67;;
39404;SDS011;25121;51.090;17.038;2023-03-21T06:21:00;63.70;;;35.88;;
39404;SDS011;25121;51.090;17.038;2023-03-21T06:22:24;61.70;;;34.10;;
39404;SDS011;25121;51.090;17.038;2023-03-21T06:23:46;58.17;;;33.97;;
39404;SDS011;25121;51.090;17.038;2023-03-21T06:25:10;68.20;;;36.90;;
39404;SDS011;25121;51.090;17.038;2023-03-21T06:26:32;69.55;;;37.63;;
39404;SDS011;25121;51.090;17.038;2023-03-21T06:27:56;64.65;;;35.10;;
39404;SDS011;25121;51.090;17.038;2023-03-21T06:29:19;64.25;;;35.58;;
39404;SDS011;25121;51.090;17.038;2023-03-21T06:30:42;61.50;;;34.67;;
39404;SDS011;25121;51.090;17.038;2023-03-21T06:32:25;58.92;;;33.25;;
39404;SDS011;25121;51.090;17.038;2023-03-21T06:33:52;62.15;;;33.42;;
39404;SDS011;25121;51.090;17.038;2023-03-21T06:35:17;62.55;;;33.53;;
39404;SDS011;25121;51.090;17.038;2023-03-21T06:36:39;62.45;;;35.55;;
39404;SDS011;25121;51.090;17.038;2023-03-21T06:38:06;64.78;;;37.22;;
39404;SDS011;25121;51.090;17.038;2023-03-21T06:39:27;64.30;;;35.08;;
39404;SDS011;25121;51.090;17.038;2023-03-21T06:40:50;67.18;;;35.65;;
39404;SDS011;25121;51.090;17.038;2023-03-21T06:42:15;61.08;;;35.53;;
39404;SDS011;25121;51.090;17.038;2023-03-21T06:43:37;69.95;;;37.20;;
39404;SDS011;25121;51.090;17.038;2023-03-21T06:45:00;67.90;;;35.65;;
39404;SDS011;25121;51.090;17.038;2023-03-21T06:46:23;62.55;;;35.40;;
39404;SDS011;25121;51.090;17.038;2023-03-21T06:47:46;62.17;;;36.45;;
39404;SDS011;25121;51.090;17.038;2023-03-21T06:49:22;60.65;;;33.72;;
39404;SDS011;25121;51.090;17.038;2023-03-21T06:50:47;67.38;;;36.03;;
39404;SDS011;25121;51.090;17.038;2023-03-21T06:52:11;56.08;;;33.80;;
39404;SDS011;25121;51.090;17.038;2023-03-21T06:53:34;66.63;;;34.67;;
39404;SDS011;25121;51.090;17.038;2023-03-21T06:55:22;58.80;;;32.60;;
39404;SDS011;25121;51.090;17.038;2023-03-21T06:56:51;59.35;;;31.95;;
39404;SDS011;25121;51.090;17.038;2023-03-21T06:58:18;61.95;;;32.92;;
39404;SDS011;25121;51.090;17.038;2023-03-21T06:59:41;56.58;;;31.77;;
39404;SDS011;25121;51.090;17.038;2023-03-21T07:01:09;66.50;;;35.13;;
39404;SDS011;25121;51.090;17.038;2023-03-21T07:02:42;63.53;;;34.22;;
39404;SDS011;25121;51.090;17.038;2023-03-21T07:04:12;62.90;;;33.72;;
39404;SDS011;25121;51.090;17.038;2023-03-21T07:05:34;57.08;;;32.33;;
39404;SDS011;25121;51.090;17.038;2023-03-21T07:07:00;57.60;;;32.03;;
39404;SDS011;25121;51.090;17.038;2023-03-21T07:08:23;56.90;;;31.77;;
39404;SDS011;25121;51.090;17.038;2023-03-21T07:09:46;59.70;;;33.33;;
39404;SDS011;25121;51.090;17.038;2023-03-21T07:11:10;55.20;;;31.40;;
39404;SDS011;25121;51.090;17.038;2023-03-21T07:12:34;58.13;;;31.92;;
39404;SDS011;25121;51.090;17.038;2023-03-21T07:14:12;54.13;;;30.10;;
39404;SDS011;25121;51.090;17.038;2023-03-21T07:15:35;53.70;;;31.65;;
39404;SDS011;25121;51.090;17.038;2023-03-21T07:17:04;52.88;;;30.88;;
39404;SDS011;25121;51.090;17.038;2023-03-21T07:18:32;54.10;;;30.93;;
39404;SDS011;25121;51.090;17.038;2023-03-21T07:19:57;54.75;;;30.08;;
39404;SDS011;25121;51.090;17.038;2023-03-21T07:21:26;51.08;;;28.85;;
39404;SDS011;25121;51.090;17.038;2023-03-21T07:22:49;50.33;;;27.20;;
39404;SDS011;25121;51.090;17.038;2023-03-21T07:24:18;53.22;;;29.55;;
39404;SDS011;25121;51.090;17.038;2023-03-21T07:25:43;47.00;;;28.63;;
39404;SDS011;25121;51.090;17.038;2023-03-21T07:27:07;46.83;;;27.85;;
39404;SDS011;25121;51.090;17.038;2023-03-21T07:28:30;54.50;;;29.05;;
39404;SDS011;25121;51.090;17.038;2023-03-21T07:29:54;57.35;;;31.10;;
39404;SDS011;25121;51.090;17.038;2023-03-21T07:31:18;52.80;;;31.55;;
39404;SDS011;25121;51.090;17.038;2023-03-21T07:32:41;47.88;;;28.20;;
39404;SDS011;25121;51.090;17.038;2023-03-21T07:34:05;55.53;;;30.17;;
39404;SDS011;25121;51.090;17.038;2023-03-21T07:35:33;48.53;;;28.35;;
39404;SDS011;25121;51.090;17.038;2023-03-21T07:36:59;52.03;;;30.38;;
39404;SDS011;25121;51.090;17.038;2023-03-21T07:38:23;48.05;;;29.38;;
39404;SDS011;25121;51.090;17.038;2023-03-21T07:39:47;48.25;;;30.10;;
39404;SDS011;25121;51.090;17.038;2023-03-21T07:41:10;58.13;;;33.50;;
39404;SDS011;25121;51.090;17.038;2023-03-21T07:42:35;53.25;;;30.40;;
39404;SDS011;25121;51.090;17.038;2023-03-21T07:43:58;54.65;;;29.40;;
39404;SDS011;25121;51.090;17.038;2023-03-21T07:45:26;53.70;;;29.60;;
39404;SDS011;25121;51.090;17.038;2023-03-21T07:46:52;54.40;;;30.40;;
39404;SDS011;25121;51.090;17.038;2023-03-21T07:48:19;52.10;;;30.40;;
39404;SDS011;25121;51.090;17.038;2023-03-21T07:49:42;53.63;;;31.25;;
39404;SDS011;25121;51.090;17.038;2023-03-21T07:51:07;50.67;;;31.77;;
39404;SDS011;25121;51.090;17.038;2023-03-21T07:52:33;47.97;;;29.40;;
39404;SDS011;25121;51.090;17.038;2023-03-21T07:53:55;48.97;;;28.35;;
39404;SDS011;25121;51.090;17.038;2023-03-21T07:55:21;52.95;;;31.00;;
39404;SDS011;25121;51.090;17.038;2023-03-21T07:56:45;54.70;;;31.30;;
39404;SDS011;25121;51.090;17.038;2023-03-21T07:58:10;52.35;;;30.52;;
39404;SDS011;25121;51.090;17.038;2023-03-21T07:59:34;55.40;;;31.13;;
39404;SDS011;25121;51.090;17.038;2023-03-21T08:00:58;53.95;;;32.03;;
39404;SDS011;25121;51.090;17.038;2023-03-21T08:02:22;55.03;;;29.73;;
39404;SDS011;25121;51.090;17.038;2023-03-21T08:03:50;49.88;;;30.27;;
39404;SDS011;25121;51.090;17.038;2023-03-21T08:05:19;52.75;;;30.80;;
39404;SDS011;25121;51.090;17.038;2023-03-21T08:06:55;55.38;;;31.52;;
39404;SDS011;25121;51.090;17.038;2023-03-21T08:08:27;47.88;;;29.25;;
39404;SDS011;25121;51.090;17.038;2023-03-21T08:09:50;51.35;;;31.05;;
39404;SDS011;25121;51.090;17.038;2023-03-21T08:11:18;49.10;;;29.95;;
39404;SDS011;25121;51.090;17.038;2023-03-21T08:12:49;52.97;;;30.20;;
39404;SDS011;25121;51.090;17.038;2023-03-21T08:14:15;48.97;;;29.27;;
39404;SDS011;25121;51.090;17.038;2023-03-21T08:15:45;49.30;;;27.92;;
39404;SDS011;25121;51.090;17.038;2023-03-21T08:17:09;47.85;;;29.42;;
39404;SDS011;25121;51.090;17.038;2023-03-21T08:18:32;46.33;;;27.85;;
39404;SDS011;25121;51.090;17.038;2023-03-21T08:19:57;42.17;;;26.65;;
39404;SDS011;25121;51.090;17.038;2023-03-21T08:21:21;44.10;;;26.33;;
39404;SDS011;25121;51.090;17.038;2023-03-21T08:22:48;47.95;;;27.77;;
39404;SDS011;25121;51.090;17.038;2023-03-21T08:24:11;39.35;;;25.58;;
39404;SDS011;25121;51.090;17.038;2023-03-21T08:25:34;47.72;;;27.95;;
39404;SDS011;25121;51.090;17.038;2023-03-21T08:26:57;46.40;;;27.73;;
39404;SDS011;25121;51.090;17.038;2023-03-21T08:28:19;51.20;;;27.80;;
39404;SDS011;25121;51.090;17.038;2023-03-21T08:29:56;44.70;;;25.38;;
39404;SDS011;25121;51.090;17.038;2023-03-21T08:31:23;40.20;;;24.73;;
39404;SDS011;25121;51.090;17.038;2023-03-21T08:32:46;43.97;;;24.33;;
39404;SDS011;25121;51.090;17.038;2023-03-21T08:34:21;40.30;;;23.17;;
39404;SDS011;25121;51.090;17.038;2023-03-21T08:35:43;40.72;;;23.83;;
39404;SDS011;25121;51.090;17.038;2023-03-21T08:37:17;38.55;;;24.92;;